Time;durP1;ratioP1;P1;durP2;ratioP2;P2;SDS_P1;SDS_P2;PMS_P1;PMS_P2;Temp;Humidity;BMP_temperature;BMP_pressure;BME280_temperature;BME280_humidity;BME280_pressure;Samples;Min_cycle;Max_cycle;Signal;HPM_P1;HPM_P2
2021/12/24 00:00:20;;;;;;;103.68;37.35;;;6.10;99.90;;;;;;5075597;28;20044;-77
2021/12/24 00:02:46;;;;;;;120.07;38.80;;;6.20;99.90;;;;;;5076343;28;20753;-77
2021/12/24 00:05:12;;;;;;;104.38;38.35;;;6.20;99.90;;;;;;5058827;28;20048;-77
2021/12/24 00:07:39;;;;;;;131.25;40.70;;;6.30;99.90;;;;;;5075671;28;20047;-77
2021/12/24 00:10:08;;;;;;;107.38;38.22;;;6.20;99.90;;;;;;5059468;28;20412;-77
2021/12/24 00:12:37;;;;;;;95.80;36.85;;;6.30;99.90;;;;;;5075996;28;20396;-79
2021/12/24 00:15:15;;;;;;;85.10;35.88;;;6.30;99.90;;;;;;5074952;28;20051;-78
2021/12/24 00:17:40;;;;;;;127.63;40.05;;;6.40;99.90;;;;;;5075278;28;20050;-78
2021/12/24 00:36:45;;;;;;;119.07;38.03;;;6.50;99.90;;;;;;5074367;28;20047;-81
2021/12/24 00:39:11;;;;;;;90.88;34.97;;;6.50;99.90;;;;;;5075352;28;20051;-82
2021/12/24 00:41:37;;;;;;;81.88;33.33;;;6.50;99.90;;;;;;5075153;28;20052;-78
2021/12/24 00:44:03;;;;;;;81.05;33.05;;;6.60;99.90;;;;;;5092851;28;20040;-78
2021/12/24 00:46:28;;;;;;;82.20;32.83;;;6.60;99.90;;;;;;5093437;28;20404;-74
2021/12/24 00:48:56;;;;;;;75.72;32.22;;;6.60;99.90;;;;;;5074953;28;20068;-77
2021/12/24 00:56:51;;;;;;;65.68;29.23;;;6.70;99.90;;;;;;5074084;28;20143;-77
2021/12/24 00:59:17;;;;;;;53.20;28.00;;;6.70;99.90;;;;;;5075267;28;20127;-79
2021/12/24 01:01:42;;;;;;;59.83;29.48;;;6.70;99.90;;;;;;5058098;28;20044;-80
2021/12/24 01:04:08;;;;;;;59.97;27.48;;;6.70;99.90;;;;;;5074624;28;20036;-73
2021/12/24 01:06:34;;;;;;;58.45;27.10;;;6.80;99.90;;;;;;5074466;28;20090;-76
2021/12/24 01:08:59;;;;;;;58.25;27.77;;;6.80;99.90;;;;;;5074922;28;20036;-71
2021/12/24 01:11:27;;;;;;;64.35;27.98;;;6.80;99.90;;;;;;5073120;28;20090;-80
2021/12/24 01:13:53;;;;;;;74.75;29.92;;;6.80;99.90;;;;;;5058030;28;20036;-78
2021/12/24 01:16:31;;;;;;;57.53;26.35;;;6.90;99.90;;;;;;5074519;28;20040;-79
2021/12/24 01:19:06;;;;;;;58.00;26.95;;;6.90;99.90;;;;;;5057280;28;20044;-79
2021/12/24 01:21:54;;;;;;;53.83;25.45;;;6.90;99.90;;;;;;5074942;28;20048;-82
2021/12/24 01:24:32;;;;;;;46.97;24.83;;;6.90;99.90;;;;;;5074272;28;20139;-82
2021/12/24 01:27:17;;;;;;;42.63;22.85;;;7.00;99.90;;;;;;5057683;28;20044;-83
2021/12/24 01:29:54;;;;;;;43.25;24.10;;;7.00;99.90;;;;;;5053189;28;20515;-83
2021/12/24 01:40:51;;;;;;;45.88;24.33;;;7.00;99.90;;;;;;5087712;28;20051;-76
2021/12/24 01:43:18;;;;;;;40.70;22.15;;;7.10;99.90;;;;;;5071119;28;20044;-80
2021/12/24 01:45:47;;;;;;;46.20;23.55;;;7.10;99.90;;;;;;5094001;28;20514;-80
2021/12/24 01:48:13;;;;;;;56.00;24.73;;;7.10;99.90;;;;;;5094186;28;20047;-78
2021/12/24 01:50:45;;;;;;;60.67;25.63;;;7.20;99.90;;;;;;5075455;28;20468;-81
2021/12/24 01:53:13;;;;;;;42.00;22.02;;;7.10;99.90;;;;;;5088772;28;20064;-80
2021/12/24 01:55:41;;;;;;;56.47;25.45;;;7.20;99.90;;;;;;5077701;28;20075;-79
2021/12/24 01:58:06;;;;;;;64.80;26.23;;;7.20;99.90;;;;;;5094418;28;20733;-82
2021/12/24 02:00:37;;;;;;;49.10;23.35;;;7.20;99.90;;;;;;5094131;28;20154;-81
2021/12/24 02:03:03;;;;;;;47.22;21.90;;;7.20;99.90;;;;;;5093881;28;20061;-81
2021/12/24 02:05:31;;;;;;;36.30;20.05;;;7.20;99.90;;;;;;5077538;28;20035;-71
2021/12/24 02:07:57;;;;;;;35.50;19.55;;;7.20;99.90;;;;;;5101767;28;20127;-79
2021/12/24 02:10:23;;;;;;;48.92;23.20;;;7.30;99.90;;;;;;5076591;28;20047;-81
2021/12/24 02:12:49;;;;;;;46.30;21.60;;;7.30;99.90;;;;;;5093560;28;20039;-82
2021/12/24 02:15:29;;;;;;;47.83;22.98;;;7.30;99.90;;;;;;5077060;28;20436;-85
2021/12/24 02:28:52;;;;;;;46.65;21.50;;;7.50;99.90;;;;;;5109311;28;20048;-78
2021/12/24 02:31:22;;;;;;;41.88;21.00;;;7.60;99.90;;;;;;5076429;28;20465;-71
2021/12/24 02:33:48;;;;;;;35.70;19.58;;;7.60;99.90;;;;;;5093841;28;20047;-78
2021/12/24 02:36:14;;;;;;;44.10;20.80;;;7.70;99.90;;;;;;5075924;28;20081;-69
2021/12/24 02:38:40;;;;;;;41.70;19.65;;;7.80;99.90;;;;;;5093529;28;20054;-76
2021/12/24 02:41:07;;;;;;;39.17;19.73;;;7.80;99.90;;;;;;5093442;28;20052;-73
2021/12/24 02:43:33;;;;;;;41.25;20.00;;;7.90;99.90;;;;;;5093258;28;20051;-71
2021/12/24 02:46:08;;;;;;;34.90;18.67;;;8.00;99.90;;;;;;5093344;28;20051;-75
2021/12/24 02:56:24;;;;;;;40.53;19.52;;;8.10;99.90;;;;;;5092552;28;20066;-76
2021/12/24 02:58:50;;;;;;;38.97;18.40;;;8.10;99.90;;;;;;5077615;28;20119;-77
2021/12/24 03:01:21;;;;;;;37.67;18.33;;;8.10;99.90;;;;;;5076090;28;20165;-77
2021/12/24 03:03:48;;;;;;;39.90;19.17;;;8.20;99.90;;;;;;5091957;28;20043;-71
2021/12/24 03:06:26;;;;;;;31.30;17.02;;;8.20;99.90;;;;;;5093341;28;20045;-80
2021/12/24 03:08:52;;;;;;;29.35;15.60;;;8.20;99.90;;;;;;5076008;28;20054;-78
2021/12/24 03:11:18;;;;;;;32.15;16.27;;;8.20;99.90;;;;;;5075361;28;20035;-80
2021/12/24 03:13:43;;;;;;;29.10;15.85;;;8.30;99.90;;;;;;5093146;28;20035;-80
2021/12/24 03:16:10;;;;;;;25.60;14.90;;;8.30;99.90;;;;;;5076057;28;20522;-78
2021/12/24 03:18:38;;;;;;;23.88;14.13;;;8.40;99.90;;;;;;5075605;28;20040;-79
2021/12/24 03:21:16;;;;;;;26.15;14.77;;;8.40;99.90;;;;;;5076108;28;20067;-78
2021/12/24 03:24:34;;;;;;;25.95;15.07;;;8.40;99.90;;;;;;5092570;28;20043;-76
2021/12/24 03:26:30;;;;;;;27.38;15.00;;;8.40;99.90;;;;;;5089920;28;20048;-78
2021/12/24 03:28:55;;;;;;;23.48;13.60;;;8.50;99.90;;;;;;5092656;28;20488;-77
2021/12/24 03:31:21;;;;;;;24.80;15.25;;;8.50;99.90;;;;;;5091978;28;20046;-78
2021/12/24 03:33:48;;;;;;;23.50;15.93;;;8.50;99.90;;;;;;5093205;28;20102;-78
2021/12/24 03:36:15;;;;;;;32.28;18.67;;;8.60;99.90;;;;;;5092749;28;20480;-78
2021/12/24 03:38:41;;;;;;;31.80;19.65;;;8.60;99.90;;;;;;5075202;28;20423;-78
2021/12/24 03:41:06;;;;;;;37.92;21.17;;;8.70;99.90;;;;;;5093022;28;20488;-80
2021/12/24 03:43:33;;;;;;;39.10;22.27;;;8.70;99.90;;;;;;5092757;28;20031;-78
2021/12/24 03:46:03;;;;;;;41.45;23.15;;;8.70;99.90;;;;;;5075636;28;20572;-79
2021/12/24 03:48:45;;;;;;;45.63;24.35;;;8.70;99.90;;;;;;5092394;28;20431;-70
2021/12/24 03:56:29;;;;;;;54.58;28.90;;;8.80;99.90;;;;;;5086471;28;20044;-80
2021/12/24 03:58:55;;;;;;;51.50;29.25;;;8.80;99.90;;;;;;5083920;28;20047;-80
2021/12/24 04:01:24;;;;;;;50.42;27.95;;;8.80;99.90;;;;;;5092568;28;20077;-80
2021/12/24 04:03:50;;;;;;;51.33;28.85;;;8.80;99.90;;;;;;5075792;28;20499;-77
2021/12/24 04:06:15;;;;;;;46.90;27.20;;;8.70;99.90;;;;;;5075357;28;20063;-81
2021/12/24 04:08:41;;;;;;;51.78;27.60;;;8.70;99.90;;;;;;5092173;28;20677;-79
2021/12/24 04:11:07;;;;;;;54.40;29.08;;;8.70;99.90;;;;;;5092777;28;20092;-80
2021/12/24 04:13:33;;;;;;;46.47;26.92;;;8.70;99.90;;;;;;5092684;28;20467;-81
2021/12/24 04:15:59;;;;;;;51.35;25.90;;;8.70;99.90;;;;;;5079015;28;20104;-80
2021/12/24 04:26:22;;;;;;;46.85;25.67;;;8.60;99.90;;;;;;5093233;28;20451;-82
2021/12/24 04:28:48;;;;;;;44.42;24.77;;;8.60;99.90;;;;;;5075355;28;20052;-73
2021/12/24 04:31:15;;;;;;;47.83;24.75;;;8.60;99.90;;;;;;5095274;28;20067;-78
2021/12/24 04:33:46;;;;;;;37.40;23.02;;;8.60;99.90;;;;;;5096491;28;20682;-77
2021/12/24 04:36:45;;;;;;;46.60;24.38;;;8.60;99.90;;;;;;5095109;28;20131;-79
2021/12/24 04:51:12;;;;;;;38.78;22.70;;;8.60;99.90;;;;;;5071656;28;20059;-80
2021/12/24 05:03:52;;;;;;;43.25;24.58;;;8.60;99.90;;;;;;5074800;28;20104;-79
2021/12/24 05:06:31;;;;;;;49.28;23.92;;;8.60;99.90;;;;;;5095078;28;20044;-79
2021/12/24 05:09:05;;;;;;;38.97;22.50;;;8.60;99.90;;;;;;5095115;28;20073;-77
2021/12/24 05:11:30;;;;;;;33.05;21.27;;;8.70;99.90;;;;;;5078156;28;20469;-78
2021/12/24 05:13:56;;;;;;;35.00;22.17;;;8.70;99.90;;;;;;5077992;28;20039;-78
2021/12/24 05:16:28;;;;;;;41.25;23.02;;;8.70;99.90;;;;;;5095384;28;20074;-81
2021/12/24 05:21:42;;;;;;;36.20;20.48;;;8.80;99.90;;;;;;5095819;28;20051;-80
2021/12/24 05:24:15;;;;;;;34.35;21.27;;;8.70;99.90;;;;;;5094329;28;20502;-77
2021/12/24 05:26:43;;;;;;;;;;;8.80;99.90;;;;;;5094149;28;20508;-77
2021/12/24 05:29:08;;;;;;;41.05;20.40;;;8.80;99.90;;;;;;5078531;28;19926;-74
2021/12/24 05:31:34;;;;;;;32.28;20.10;;;8.80;99.90;;;;;;5077484;28;20492;-79
2021/12/24 05:34:01;;;;;;;32.47;19.42;;;8.80;99.90;;;;;;5094461;28;20047;-80
2021/12/24 05:36:27;;;;;;;37.67;19.00;;;8.80;99.90;;;;;;5077966;28;20059;-76
2021/12/24 05:38:53;;;;;;;36.67;18.92;;;8.80;99.90;;;;;;5061587;28;20377;-79
2021/12/24 05:41:21;;;;;;;27.08;16.67;;;8.80;99.90;;;;;;5094383;28;20047;-77
2021/12/24 05:43:47;;;;;;;32.38;17.67;;;8.80;99.90;;;;;;5074665;28;20086;-79
2021/12/24 05:46:13;;;;;;;32.05;17.13;;;8.80;99.90;;;;;;5076973;28;20043;-79
2021/12/24 05:48:38;;;;;;;34.25;16.27;;;8.80;99.90;;;;;;5094202;28;20476;-77
2021/12/24 05:51:04;;;;;;;27.63;14.80;;;8.80;99.90;;;;;;5094423;28;20103;-72
2021/12/24 05:53:30;;;;;;;31.60;15.30;;;8.80;99.90;;;;;;5090171;28;20032;-78
2021/12/24 05:55:56;;;;;;;26.20;14.77;;;8.80;99.90;;;;;;5085463;28;20067;-77
2021/12/24 05:58:23;;;;;;;23.25;14.23;;;8.80;99.90;;;;;;5089361;28;20043;-78
2021/12/24 06:00:48;;;;;;;30.40;14.38;;;8.80;99.90;;;;;;5094054;28;20055;-73
2021/12/24 06:03:15;;;;;;;27.48;14.57;;;8.80;99.90;;;;;;5094514;28;20051;-77
2021/12/24 06:05:41;;;;;;;33.38;14.35;;;8.80;99.90;;;;;;5073979;28;20036;-80
2021/12/24 06:08:07;;;;;;;32.15;13.23;;;8.70;99.90;;;;;;5093569;28;20089;-78
2021/12/24 06:10:34;;;;;;;23.83;14.63;;;8.80;99.90;;;;;;5076747;28;20040;-84
2021/12/24 06:13:00;;;;;;;28.02;14.00;;;8.70;99.90;;;;;;5093020;28;20078;-86
2021/12/24 06:15:26;;;;;;;26.63;12.80;;;8.80;99.90;;;;;;5094006;28;20067;-82
2021/12/24 06:17:55;;;;;;;30.67;12.35;;;8.70;99.90;;;;;;5076642;28;20047;-81
2021/12/24 06:20:23;;;;;;;30.23;13.32;;;8.80;99.90;;;;;;5076131;28;20130;-79
2021/12/24 06:22:49;;;;;;;33.67;12.13;;;8.70;99.90;;;;;;5077073;28;20055;-80
2021/12/24 06:25:16;;;;;;;23.80;12.63;;;8.70;99.90;;;;;;5092037;28;20044;-74
2021/12/24 06:27:43;;;;;;;25.65;12.55;;;8.70;99.90;;;;;;5093618;28;20055;-80
2021/12/24 06:30:10;;;;;;;26.85;10.52;;;8.70;99.90;;;;;;5093492;28;20061;-75
2021/12/24 06:32:35;;;;;;;27.05;11.50;;;8.70;99.90;;;;;;5077042;28;20042;-80
2021/12/24 06:35:01;;;;;;;26.00;10.63;;;8.70;99.90;;;;;;5092776;28;20043;-81
2021/12/24 06:37:27;;;;;;;28.13;10.82;;;8.70;99.90;;;;;;5093608;28;20055;-81
2021/12/24 06:39:54;;;;;;;25.50;10.73;;;8.70;99.90;;;;;;5093574;28;20097;-80
2021/12/24 06:42:20;;;;;;;26.63;10.30;;;8.70;99.90;;;;;;5076211;28;20114;-74
2021/12/24 06:44:45;;;;;;;25.70;9.45;;;8.70;99.90;;;;;;5093250;28;20476;-81
2021/12/24 06:47:11;;;;;;;24.55;9.27;;;8.70;99.90;;;;;;5090001;28;20052;-77
2021/12/24 06:49:36;;;;;;;23.70;9.93;;;8.70;99.90;;;;;;5072986;28;20048;-72
2021/12/24 06:52:03;;;;;;;22.85;8.70;;;8.70;99.90;;;;;;5073184;28;20055;-77
2021/12/24 06:54:30;;;;;;;24.00;9.27;;;8.70;99.90;;;;;;5072701;28;20411;-78
2021/12/24 06:56:56;;;;;;;23.15;9.43;;;8.70;99.90;;;;;;5071336;28;20519;-79
2021/12/24 06:59:22;;;;;;;21.90;8.82;;;8.70;99.90;;;;;;5072344;28;20036;-79
2021/12/24 07:01:47;;;;;;;16.98;7.55;;;8.70;99.90;;;;;;5056287;28;20055;-78
2021/12/24 07:04:13;;;;;;;16.23;7.60;;;8.70;99.90;;;;;;5055427;28;20048;-79
2021/12/24 07:06:45;;;;;;;20.90;7.68;;;8.80;99.90;;;;;;5073045;28;20051;-80
2021/12/24 07:09:12;;;;;;;19.92;8.02;;;8.70;99.90;;;;;;5055432;28;20043;-77
2021/12/24 07:11:39;;;;;;;19.52;8.32;;;8.70;99.90;;;;;;5056331;28;20101;-76
2021/12/24 07:14:04;;;;;;;22.38;7.53;;;8.70;99.90;;;;;;5072875;28;20472;-75
2021/12/24 07:16:30;;;;;;;20.58;7.68;;;8.70;99.90;;;;;;5055871;28;20076;-75
2021/12/24 07:18:56;;;;;;;26.70;8.20;;;8.70;99.90;;;;;;5055602;28;20040;-78
2021/12/24 07:21:21;;;;;;;24.92;8.50;;;8.70;99.90;;;;;;5072986;28;20496;-77
2021/12/24 07:23:47;;;;;;;21.85;6.82;;;8.70;99.90;;;;;;5070907;28;20102;-78
2021/12/24 07:26:13;;;;;;;15.50;6.55;;;8.70;99.90;;;;;;5071829;28;20044;-79
2021/12/24 07:28:38;;;;;;;19.35;6.45;;;8.70;99.90;;;;;;5072472;28;20547;-77
2021/12/24 07:31:04;;;;;;;17.48;6.25;;;8.70;99.90;;;;;;5072600;28;20048;-76
2021/12/24 07:33:30;;;;;;;13.07;5.25;;;8.70;99.90;;;;;;5090501;28;20071;-76
2021/12/24 07:35:55;;;;;;;16.80;5.53;;;8.70;99.90;;;;;;5055610;28;20448;-83
2021/12/24 07:38:21;;;;;;;19.90;5.10;;;8.70;99.90;;;;;;5088756;28;20579;-80
2021/12/24 07:40:46;;;;;;;20.05;5.07;;;8.80;99.90;;;;;;5090850;28;20051;-80
2021/12/24 07:43:12;;;;;;;15.35;4.72;;;8.80;99.90;;;;;;5072324;28;20508;-79
2021/12/24 07:45:40;;;;;;;21.85;5.22;;;8.80;99.90;;;;;;5072190;28;20074;-79
2021/12/24 07:48:14;;;;;;;19.00;5.82;;;8.70;99.90;;;;;;5089012;28;20523;-78
2021/12/24 07:53:11;;;;;;;19.80;5.15;;;8.70;99.90;;;;;;5071341;28;20047;-80
2021/12/24 07:55:38;;;;;;;19.88;5.97;;;8.70;99.90;;;;;;5076764;28;20048;-78
2021/12/24 07:58:05;;;;;;;19.13;6.07;;;8.70;99.90;;;;;;5075938;28;20131;-76
2021/12/24 08:00:31;;;;;;;22.48;5.82;;;8.70;99.90;;;;;;5074845;28;20059;-75
2021/12/24 08:02:58;;;;;;;23.27;6.43;;;8.60;99.90;;;;;;5075771;28;20063;-76
2021/12/24 08:05:25;;;;;;;22.30;6.53;;;8.60;99.90;;;;;;5076298;28;20382;-72
2021/12/24 08:07:54;;;;;;;20.55;6.15;;;8.60;99.90;;;;;;5057860;28;20124;-75
2021/12/24 08:10:23;;;;;;;20.75;6.80;;;8.60;99.90;;;;;;5075780;28;20047;-72
2021/12/24 08:12:49;;;;;;;17.73;6.88;;;8.60;99.90;;;;;;5055279;28;20056;-78
2021/12/24 08:15:17;;;;;;;26.13;7.72;;;8.60;99.90;;;;;;5071359;28;20119;-76
2021/12/24 08:17:43;;;;;;;21.65;6.35;;;8.60;99.90;;;;;;5072602;28;20044;-76
2021/12/24 08:20:09;;;;;;;27.17;7.53;;;8.60;99.90;;;;;;5072570;28;20032;-76
2021/12/24 08:22:35;;;;;;;21.10;7.32;;;8.60;99.90;;;;;;5074389;28;20076;-78
2021/12/24 08:25:01;;;;;;;29.42;8.02;;;8.60;99.90;;;;;;5075030;28;20060;-78
2021/12/24 08:27:27;;;;;;;26.90;8.18;;;8.60;99.90;;;;;;5074774;28;20044;-76
2021/12/24 08:29:53;;;;;;;25.05;7.88;;;8.60;99.90;;;;;;5059074;28;20401;-75
2021/12/24 08:32:19;;;;;;;24.88;7.40;;;8.60;99.90;;;;;;5075937;28;20052;-72
2021/12/24 08:34:45;;;;;;;18.38;6.45;;;8.50;99.90;;;;;;5074209;28;20040;-77
2021/12/24 08:37:11;;;;;;;22.90;6.75;;;8.60;99.90;;;;;;5075016;28;20123;-77
2021/12/24 08:39:36;;;;;;;14.48;5.18;;;8.60;99.90;;;;;;5058669;28;20143;-76
2021/12/24 08:42:03;;;;;;;19.42;5.47;;;8.60;99.90;;;;;;5074901;28;20036;-78
2021/12/24 08:44:31;;;;;;;21.70;6.25;;;8.60;99.90;;;;;;5075515;28;20040;-72
2021/12/24 08:47:00;;;;;;;19.77;5.45;;;8.60;99.90;;;;;;5074375;28;20051;-73
2021/12/24 08:49:26;;;;;;;17.77;6.03;;;8.60;99.90;;;;;;5074782;28;20476;-78
2021/12/24 08:51:52;;;;;;;20.73;5.45;;;8.60;99.90;;;;;;5074790;28;20048;-77
2021/12/24 08:54:18;;;;;;;18.85;5.25;;;8.60;99.90;;;;;;5073467;28;20044;-78
2021/12/24 08:56:45;;;;;;;25.02;5.68;;;8.60;99.90;;;;;;5056771;28;20055;-70
2021/12/24 08:59:10;;;;;;;22.67;5.70;;;8.50;99.90;;;;;;5058435;28;20079;-77
2021/12/24 09:01:36;;;;;;;24.13;5.72;;;8.50;99.90;;;;;;5074252;28;20082;-76
2021/12/24 09:04:02;;;;;;;20.33;5.03;;;8.50;99.90;;;;;;5056346;28;20059;-77
2021/12/24 09:06:28;;;;;;;20.35;5.20;;;8.50;99.90;;;;;;5075103;28;20067;-77
2021/12/24 09:08:54;;;;;;;25.92;5.05;;;8.50;99.90;;;;;;5074245;28;20047;-78
2021/12/24 09:11:19;;;;;;;22.90;5.20;;;8.40;99.90;;;;;;5075406;28;20512;-72
2021/12/24 09:13:45;;;;;;;20.88;4.40;;;8.40;99.90;;;;;;5073785;28;20400;-77
2021/12/24 09:16:11;;;;;;;18.00;4.95;;;8.40;99.90;;;;;;5074170;28;20059;-77
2021/12/24 09:18:39;;;;;;;16.80;4.30;;;8.50;99.90;;;;;;5073604;28;20108;-77
2021/12/24 09:21:12;;;;;;;19.45;4.28;;;8.50;99.90;;;;;;5058389;28;20048;-74
2021/12/24 09:23:38;;;;;;;15.63;4.35;;;8.50;99.90;;;;;;5073032;28;20059;-75
2021/12/24 09:26:03;;;;;;;26.83;5.20;;;8.50;99.90;;;;;;5075475;28;20032;-78
2021/12/24 09:28:29;;;;;;;18.40;4.57;;;8.50;99.90;;;;;;5057175;28;20531;-71
2021/12/24 09:30:54;;;;;;;20.80;5.07;;;8.50;99.90;;;;;;5057986;28;20040;-77
2021/12/24 09:33:20;;;;;;;18.13;4.68;;;8.50;99.90;;;;;;5074652;28;20059;-78
2021/12/24 09:35:46;;;;;;;19.70;4.45;;;8.50;99.90;;;;;;5074211;28;20080;-78
2021/12/24 09:38:11;;;;;;;16.48;4.53;;;8.50;99.90;;;;;;5072804;28;20101;-77
2021/12/24 09:40:37;;;;;;;21.35;5.40;;;8.60;99.90;;;;;;5075150;28;20102;-77
2021/12/24 09:43:03;;;;;;;23.60;4.80;;;8.60;99.90;;;;;;5074259;28;20048;-79
2021/12/24 09:45:28;;;;;;;22.23;5.10;;;8.60;99.90;;;;;;5057449;28;20051;-72
2021/12/24 09:47:54;;;;;;;23.30;5.68;;;8.60;99.90;;;;;;5073580;28;20087;-77
2021/12/24 09:50:24;;;;;;;23.00;5.13;;;8.60;99.90;;;;;;5074208;28;20048;-72
2021/12/24 09:52:50;;;;;;;25.58;5.97;;;8.60;99.90;;;;;;5056287;28;20089;-71
2021/12/24 09:55:19;;;;;;;20.23;5.47;;;8.60;99.90;;;;;;5074036;28;20455;-77
2021/12/24 09:57:45;;;;;;;23.00;5.68;;;8.60;99.90;;;;;;5071993;28;20044;-70
2021/12/24 10:00:13;;;;;;;19.67;5.60;;;8.60;99.90;;;;;;5050470;28;20044;-77
2021/12/24 10:02:44;;;;;;;26.50;5.07;;;8.60;99.90;;;;;;5071820;28;20063;-78
2021/12/24 10:05:24;;;;;;;21.55;5.60;;;8.60;99.90;;;;;;5056590;28;20048;-76
2021/12/24 10:07:50;;;;;;;23.75;5.88;;;8.60;99.90;;;;;;5068648;28;20044;-73
2021/12/24 10:10:25;;;;;;;19.52;5.88;;;8.60;99.90;;;;;;5054496;28;20074;-71
2021/12/24 10:12:52;;;;;;;14.38;5.25;;;8.60;99.90;;;;;;5048835;28;20047;-73
2021/12/24 10:15:17;;;;;;;17.27;5.07;;;8.60;99.90;;;;;;5070377;28;20052;-77
2021/12/24 10:17:43;;;;;;;18.77;4.93;;;8.60;99.90;;;;;;5069335;28;20059;-79
2021/12/24 10:20:15;;;;;;;20.05;5.80;;;8.60;99.90;;;;;;5073699;28;20072;-72
2021/12/24 10:22:47;;;;;;;19.35;6.03;;;8.60;99.90;;;;;;5070846;28;20036;-76
2021/12/24 10:25:14;;;;;;;16.35;5.57;;;8.70;99.90;;;;;;5068092;28;20040;-77
2021/12/24 10:27:41;;;;;;;17.75;5.30;;;8.70;99.90;;;;;;5054575;28;20472;-76
2021/12/24 10:30:21;;;;;;;20.98;5.20;;;8.70;99.90;;;;;;5091758;28;20048;-73
2021/12/24 10:32:48;;;;;;;18.65;5.60;;;8.80;99.90;;;;;;5090334;28;20492;-76
2021/12/24 10:35:32;;;;;;;22.58;5.93;;;8.80;99.90;;;;;;5091424;28;20036;-76
2021/12/24 10:38:17;;;;;;;14.43;5.32;;;8.80;99.90;;;;;;5072911;28;20051;-75
2021/12/24 10:40:53;;;;;;;16.55;5.18;;;8.80;99.90;;;;;;5072842;28;20500;-76
2021/12/24 10:43:27;;;;;;;13.52;4.50;;;8.80;99.90;;;;;;5069767;28;20072;-71
2021/12/24 10:46:23;;;;;;;17.17;5.50;;;8.80;99.90;;;;;;5052811;28;20036;-71
2021/12/24 10:49:17;;;;;;;14.15;5.25;;;8.80;99.90;;;;;;5046293;28;20045;-72
2021/12/24 10:52:16;;;;;;;19.27;5.32;;;8.90;99.90;;;;;;5053242;28;20041;-77
2021/12/24 10:55:00;;;;;;;23.77;5.53;;;9.00;99.90;;;;;;5051909;28;20032;-77
2021/12/24 10:57:32;;;;;;;20.67;5.63;;;9.00;99.90;;;;;;5072293;28;20519;-70
2021/12/24 11:00:00;;;;;;;22.13;5.40;;;9.00;99.90;;;;;;5055351;28;20044;-80
2021/12/24 11:02:33;;;;;;;19.77;5.60;;;9.00;99.90;;;;;;5073106;28;20495;-79
2021/12/24 11:05:00;;;;;;;18.77;6.10;;;9.10;99.90;;;;;;5055303;28;20047;-76
2021/12/24 11:07:35;;;;;;;22.23;5.82;;;9.10;99.90;;;;;;5090285;28;20044;-77
2021/12/24 11:10:12;;;;;;;21.80;6.13;;;9.10;99.90;;;;;;5072342;28;20048;-77
2021/12/24 11:12:44;;;;;;;23.00;6.68;;;9.10;99.90;;;;;;5073363;28;20095;-77
2021/12/24 11:15:31;;;;;;;17.15;5.00;;;9.10;99.90;;;;;;5072016;28;20480;-76
2021/12/24 11:18:02;;;;;;;19.77;7.38;;;9.00;99.90;;;;;;5056199;28;20079;-78
2021/12/24 11:20:29;;;;;;;12.07;3.90;;;9.00;99.90;;;;;;5072688;28;20044;-74
2021/12/24 11:23:18;;;;;;;11.85;3.58;;;9.00;99.90;;;;;;5071834;28;20290;-78
2021/12/24 11:25:47;;;;;;;15.60;3.22;;;9.00;99.90;;;;;;5072160;28;20048;-77
2021/12/24 11:28:14;;;;;;;9.57;3.10;;;8.90;99.90;;;;;;5069397;28;20055;-77
2021/12/24 11:30:44;;;;;;;10.70;2.67;;;8.90;99.90;;;;;;5068956;28;20178;-72
2021/12/24 11:33:15;;;;;;;9.15;3.13;;;8.90;99.90;;;;;;5071708;28;20047;-78
2021/12/24 11:35:43;;;;;;;9.98;2.20;;;8.80;99.90;;;;;;5055134;28;20575;-78
2021/12/24 11:38:14;;;;;;;13.88;2.67;;;8.80;99.90;;;;;;5055836;28;20052;-71
2021/12/24 11:40:41;;;;;;;4.88;0.65;;;8.80;99.90;;;;;;5073023;28;20070;-72
2021/12/24 11:43:06;;;;;;;1.20;0.20;;;8.60;99.90;;;;;;5055486;28;20044;-78
2021/12/24 11:45:33;;;;;;;1.17;0.20;;;8.50;99.90;;;;;;5072602;28;20062;-78
2021/12/24 11:48:00;;;;;;;0.38;0.10;;;8.40;99.90;;;;;;5071718;28;20447;-77
2021/12/24 11:50:27;;;;;;;0.57;0.20;;;8.30;99.90;;;;;;5072170;28;20051;-70
2021/12/24 11:52:56;;;;;;;0.30;0.10;;;8.20;99.90;;;;;;5054155;28;20040;-78
2021/12/24 11:55:24;;;;;;;1.55;0.10;;;8.10;99.90;;;;;;5053303;28;20135;-78
2021/12/24 11:57:59;;;;;;;0.57;0.10;;;8.00;99.90;;;;;;5054980;28;20142;-70
2021/12/24 12:00:37;;;;;;;0.28;0.10;;;8.00;99.90;;;;;;5072283;28;20083;-72
2021/12/24 12:03:02;;;;;;;0.22;0.10;;;7.90;99.90;;;;;;5072407;28;20044;-79
2021/12/24 12:05:32;;;;;;;0.88;0.20;;;7.90;99.90;;;;;;5072687;28;20534;-72
2021/12/24 12:08:24;;;;;;;0.68;0.20;;;7.80;99.90;;;;;;5072435;28;20040;-76
2021/12/24 12:11:14;;;;;;;0.85;0.30;;;7.80;99.90;;;;;;5072411;28;20044;-78
2021/12/24 12:14:09;;;;;;;1.30;0.40;;;7.70;99.90;;;;;;5055810;28;20135;-78
2021/12/24 12:16:41;;;;;;;1.20;0.30;;;7.70;99.90;;;;;;5072541;28;20044;-78
2021/12/24 12:19:31;;;;;;;1.00;0.38;;;7.80;99.90;;;;;;5072334;28;20740;-71
2021/12/24 12:22:19;;;;;;;0.75;0.20;;;7.80;99.90;;;;;;5055932;28;20139;-79
2021/12/24 12:24:59;;;;;;;0.30;0.17;;;7.80;99.90;;;;;;5071156;28;20434;-79
2021/12/24 12:27:36;;;;;;;0.50;0.30;;;7.80;99.90;;;;;;5052303;28;20138;-79
2021/12/24 12:30:18;;;;;;;0.50;0.20;;;7.90;99.90;;;;;;5052309;28;20044;-78
2021/12/24 12:32:45;;;;;;;0.60;0.30;;;7.90;99.90;;;;;;5051774;28;20049;-71
2021/12/24 12:35:11;;;;;;;0.68;0.20;;;8.00;99.90;;;;;;5053643;28;20040;-78
2021/12/24 12:37:49;;;;;;;0.60;0.20;;;8.00;99.90;;;;;;5072699;28;20475;-78
2021/12/24 12:40:17;;;;;;;0.57;0.20;;;8.00;99.90;;;;;;5072102;28;20113;-71
2021/12/24 12:42:53;;;;;;;0.50;0.20;;;8.00;99.90;;;;;;5072455;28;20519;-79
2021/12/24 12:45:41;;;;;;;0.60;0.20;;;8.00;99.90;;;;;;5071752;28;20057;-71
2021/12/24 12:48:10;;;;;;;1.50;0.30;;;8.10;99.90;;;;;;5055616;28;20136;-78
2021/12/24 12:50:37;;;;;;;0.70;0.30;;;8.10;99.90;;;;;;5039392;28;20537;-79
2021/12/24 12:53:30;;;;;;;0.50;0.30;;;8.10;99.90;;;;;;5071685;28;20048;-78
2021/12/24 12:56:19;;;;;;;0.60;0.28;;;8.10;99.90;;;;;;5054291;28;20056;-81
2021/12/24 12:58:48;;;;;;;0.63;0.30;;;8.10;99.90;;;;;;5075773;28;20047;-78
2021/12/24 13:01:23;;;;;;;1.35;0.30;;;8.00;99.90;;;;;;5075118;28;20069;-79
2021/12/24 13:04:09;;;;;;;0.73;0.20;;;8.00;99.90;;;;;;5056944;28;20040;-79
2021/12/24 13:06:39;;;;;;;1.23;0.20;;;7.90;99.90;;;;;;5074892;28;20048;-79
2021/12/24 13:09:07;;;;;;;0.47;0.20;;;7.90;99.90;;;;;;5075641;28;20512;-72
2021/12/24 13:11:38;;;;;;;1.85;0.17;;;7.80;99.90;;;;;;5075592;28;20102;-79
2021/12/24 13:14:04;;;;;;;0.77;0.20;;;7.80;99.90;;;;;;5075124;28;20495;-76
2021/12/24 13:16:49;;;;;;;0.85;0.15;;;7.70;99.90;;;;;;5074837;28;20052;-72
2021/12/24 13:24:17;;;;;;;1.83;0.25;;;7.60;99.90;;;;;;5074215;28;20744;-73
2021/12/24 13:26:44;;;;;;;1.15;0.30;;;7.60;99.90;;;;;;5075226;28;20396;-77
2021/12/24 13:29:16;;;;;;;1.15;0.30;;;7.50;99.90;;;;;;5074573;28;20047;-77
2021/12/24 13:31:51;;;;;;;0.40;0.20;;;7.50;99.90;;;;;;5074969;28;20048;-77
2021/12/24 13:34:17;;;;;;;0.60;0.20;;;7.50;99.90;;;;;;5074360;28;20770;-70
2021/12/24 13:36:42;;;;;;;0.85;0.30;;;7.50;99.90;;;;;;5074607;28;20131;-78
2021/12/24 13:39:17;;;;;;;0.73;0.30;;;7.40;99.90;;;;;;5075424;28;20094;-72
2021/12/24 13:41:45;;;;;;;0.63;0.22;;;7.40;99.90;;;;;;5073774;28;20052;-79
2021/12/24 13:44:26;;;;;;;0.90;0.40;;;7.30;99.90;;;;;;5073656;28;20055;-78
2021/12/24 13:47:07;;;;;;;0.73;0.20;;;7.30;99.90;;;;;;5072010;28;20044;-78
2021/12/24 13:49:45;;;;;;;0.80;0.40;;;7.40;99.90;;;;;;5073779;28;20112;-78
2021/12/24 13:54:54;;;;;;;2.10;0.45;;;7.40;99.90;;;;;;5069916;28;20048;-77
2021/12/24 13:57:21;;;;;;;1.10;0.50;;;7.50;99.90;;;;;;5073128;28;20101;-79
2021/12/24 13:59:52;;;;;;;1.20;0.60;;;7.40;99.90;;;;;;5072659;28;20051;-76
2021/12/24 14:02:17;;;;;;;2.33;1.00;;;7.50;99.90;;;;;;5068367;28;20074;-78
2021/12/24 14:04:43;;;;;;;0.88;0.30;;;7.50;99.90;;;;;;5070412;28;20061;-77
2021/12/24 14:07:09;;;;;;;1.60;0.70;;;7.50;99.90;;;;;;5071875;28;20477;-77
2021/12/24 14:09:35;;;;;;;1.05;0.45;;;7.50;99.90;;;;;;5074117;28;20063;-78
2021/12/24 14:12:06;;;;;;;1.10;0.50;;;7.60;99.90;;;;;;5072960;28;20445;-79
2021/12/24 14:14:45;;;;;;;0.88;0.35;;;7.60;99.90;;;;;;5073344;28;20046;-75
2021/12/24 14:22:19;;;;;;;0.63;0.30;;;7.50;99.90;;;;;;5070965;28;20048;-76
2021/12/24 14:25:02;;;;;;;1.67;0.50;;;7.60;99.90;;;;;;5063213;28;20045;-78
2021/12/24 14:27:30;;;;;;;1.38;0.50;;;7.60;99.90;;;;;;5053935;28;20527;-72
2021/12/24 14:29:59;;;;;;;0.70;0.40;;;7.50;99.90;;;;;;5072817;28;20036;-72
2021/12/24 14:32:45;;;;;;;0.88;0.50;;;7.60;99.90;;;;;;5055726;28;20043;-79
2021/12/24 14:35:23;;;;;;;1.15;0.50;;;7.60;99.90;;;;;;5090852;28;20040;-76
2021/12/24 14:37:59;;;;;;;1.25;0.40;;;7.50;99.90;;;;;;5090789;28;20090;-78
2021/12/24 14:40:28;;;;;;;1.08;0.65;;;7.50;99.90;;;;;;5072856;28;20071;-78